Time;durP1;ratioP1;P1;durP2;ratioP2;P2;SDS_P1;SDS_P2;PMS_P1;PMS_P2;Temp;Humidity;BMP_temperature;BMP_pressure;BME280_temperature;BME280_humidity;BME280_pressure;Samples;Min_cycle;Max_cycle;Signal;HPM_P1;HPM_P2
2023/10/26 00:14:54;;;;;;;2.20;1.00;;;10.60;99.90;;;;;;5012227;28;20178;-86
2023/10/26 00:17:19;;;;;;;1.30;1.20;;;10.60;99.90;;;;;;5002942;28;20207;-86
2023/10/26 00:19:45;;;;;;;1.30;1.20;;;10.60;99.90;;;;;;5001800;28;20261;-86
2023/10/26 00:22:11;;;;;;;1.20;1.10;;;10.60;99.90;;;;;;5013417;28;20198;-84
2023/10/26 00:24:37;;;;;;;1.30;1.20;;;10.60;99.90;;;;;;5011768;28;20186;-84
2023/10/26 00:27:03;;;;;;;1.37;1.10;;;10.60;99.90;;;;;;5011450;28;20214;-86
2023/10/26 00:29:29;;;;;;;1.27;1.17;;;10.60;99.90;;;;;;5004847;28;20176;-86
2023/10/26 00:31:55;;;;;;;1.40;1.30;;;10.50;99.90;;;;;;5000534;28;20198;-86
2023/10/26 00:34:20;;;;;;;1.70;1.20;;;10.50;99.90;;;;;;5005830;28;20175;-86
2023/10/26 00:36:46;;;;;;;1.37;1.27;;;10.60;99.90;;;;;;5004237;28;20196;-86
2023/10/26 00:39:12;;;;;;;1.50;1.40;;;10.50;99.90;;;;;;5007884;28;20210;-86
2023/10/26 00:41:37;;;;;;;2.10;1.30;;;10.50;99.90;;;;;;5000013;28;20233;-86
2023/10/26 00:44:03;;;;;;;1.40;1.30;;;10.40;99.90;;;;;;5000865;28;20188;-86
2023/10/26 00:46:30;;;;;;;1.60;1.40;;;10.50;99.90;;;;;;5003809;28;20219;-86
2023/10/26 00:48:56;;;;;;;4.47;1.57;;;10.40;99.90;;;;;;5013107;28;20187;-85
2023/10/26 00:51:22;;;;;;;1.13;1.10;;;10.40;99.90;;;;;;5008138;28;20198;-86
2023/10/26 00:53:49;;;;;;;1.50;1.40;;;10.30;99.90;;;;;;5008423;28;20265;-86
2023/10/26 00:56:20;;;;;;;1.53;1.43;;;10.30;99.90;;;;;;5015451;28;20296;-85
2023/10/26 00:58:46;;;;;;;2.07;1.60;;;10.30;99.90;;;;;;5014946;28;20170;-85
2023/10/26 01:01:12;;;;;;;1.93;1.50;;;10.30;99.90;;;;;;5009331;28;20577;-85
2023/10/26 01:03:40;;;;;;;2.00;1.80;;;10.30;99.90;;;;;;5007486;28;20179;-85
2023/10/26 01:06:08;;;;;;;1.63;1.53;;;10.30;99.90;;;;;;5015896;28;20198;-85
2023/10/26 01:08:34;;;;;;;1.70;1.60;;;10.30;99.90;;;;;;5016830;28;20710;-86
2023/10/26 01:11:01;;;;;;;1.30;1.20;;;10.30;99.90;;;;;;5005322;28;20534;-85
2023/10/26 01:13:29;;;;;;;1.57;1.47;;;10.30;99.90;;;;;;5016911;28;20183;-85
2023/10/26 01:15:55;;;;;;;1.67;1.30;;;10.40;99.90;;;;;;5015376;28;20221;-85
2023/10/26 01:18:20;;;;;;;1.80;1.40;;;10.40;99.90;;;;;;5016865;28;20183;-85
2023/10/26 01:20:46;;;;;;;2.00;1.23;;;10.40;99.90;;;;;;5000392;28;20176;-86
2023/10/26 01:23:12;;;;;;;1.40;1.30;;;10.40;99.90;;;;;;5015326;28;20205;-85
2023/10/26 01:25:37;;;;;;;1.77;1.60;;;10.30;99.90;;;;;;5015042;28;20206;-85
2023/10/26 01:28:04;;;;;;;2.57;1.27;;;10.30;99.90;;;;;;5010076;28;20282;-86
2023/10/26 01:30:31;;;;;;;1.57;1.47;;;10.30;99.90;;;;;;5007937;28;20193;-86
2023/10/26 01:32:57;;;;;;;1.33;1.20;;;10.20;99.90;;;;;;5003609;28;20273;-86
2023/10/26 01:35:22;;;;;;;1.60;1.50;;;10.20;99.90;;;;;;5009416;28;20658;-86
2023/10/26 01:37:48;;;;;;;1.10;1.00;;;10.10;99.90;;;;;;5012778;28;20192;-86
2023/10/26 01:40:13;;;;;;;1.43;1.30;;;10.20;99.90;;;;;;5008643;28;20271;-86
2023/10/26 01:42:39;;;;;;;1.50;1.40;;;10.10;99.90;;;;;;5003984;28;20202;-85
2023/10/26 01:45:05;;;;;;;2.80;1.30;;;10.10;99.90;;;;;;5012310;28;20180;-86
2023/10/26 01:47:30;;;;;;;1.40;1.30;;;10.10;99.90;;;;;;5010759;28;20199;-86
2023/10/26 01:49:56;;;;;;;2.13;1.40;;;10.10;99.90;;;;;;5003356;28;20198;-86
2023/10/26 01:52:22;;;;;;;1.60;1.50;;;10.10;99.90;;;;;;5009374;28;20203;-85
2023/10/26 01:54:49;;;;;;;1.67;1.50;;;10.10;99.90;;;;;;5014260;28;20183;-86
2023/10/26 01:57:15;;;;;;;1.73;1.37;;;10.10;99.90;;;;;;5009811;28;20226;-86
2023/10/26 01:59:40;;;;;;;1.93;1.50;;;10.10;99.90;;;;;;5002426;28;20266;-86
2023/10/26 02:02:06;;;;;;;1.50;1.40;;;10.20;99.90;;;;;;5011471;28;20592;-86
2023/10/26 02:04:31;;;;;;;1.70;1.60;;;10.20;99.90;;;;;;5008433;28;20184;-85
2023/10/26 02:06:57;;;;;;;1.57;1.47;;;10.20;99.90;;;;;;5007327;28;20207;-84
2023/10/26 02:09:22;;;;;;;1.70;1.60;;;10.20;99.90;;;;;;5009275;28;20182;-86
2023/10/26 02:11:48;;;;;;;1.60;1.40;;;10.20;99.90;;;;;;5015758;28;20261;-85
2023/10/26 02:14:13;;;;;;;2.00;1.80;;;10.20;99.90;;;;;;5006165;28;20179;-85
2023/10/26 02:16:39;;;;;;;1.67;1.57;;;10.20;99.90;;;;;;5013946;28;20214;-85
2023/10/26 02:19:05;;;;;;;2.10;1.90;;;10.20;99.90;;;;;;5014067;28;20229;-86
2023/10/26 02:21:30;;;;;;;2.10;1.90;;;10.20;99.90;;;;;;5005842;28;20183;-86
2023/10/26 02:23:56;;;;;;;2.30;2.10;;;10.20;99.90;;;;;;5013805;28;20258;-86
2023/10/26 02:26:21;;;;;;;2.50;2.30;;;10.10;99.90;;;;;;5013573;28;20261;-85
2023/10/26 02:28:47;;;;;;;2.80;1.87;;;10.10;99.90;;;;;;5009376;28;20187;-85
2023/10/26 02:31:12;;;;;;;2.07;1.87;;;10.10;99.90;;;;;;5011411;28;20239;-85
2023/10/26 02:33:38;;;;;;;2.30;2.10;;;10.10;99.90;;;;;;4997521;28;20183;-85
2023/10/26 02:36:06;;;;;;;2.40;2.00;;;10.10;99.90;;;;;;5003293;28;20222;-85
2023/10/26 02:38:32;;;;;;;2.40;2.10;;;10.10;99.90;;;;;;5012377;28;20662;-86
2023/10/26 02:41:03;;;;;;;3.10;2.20;;;10.10;99.90;;;;;;5013078;28;20186;-86
2023/10/26 02:43:28;;;;;;;2.40;2.20;;;10.10;99.90;;;;;;5012904;28;20186;-86
2023/10/26 02:46:08;;;;;;;2.33;2.13;;;10.10;99.90;;;;;;5014629;28;20199;-86
2023/10/26 02:48:34;;;;;;;2.20;1.90;;;10.10;99.90;;;;;;5012079;28;20178;-85
2023/10/26 02:51:00;;;;;;;2.93;2.17;;;10.10;99.90;;;;;;5024841;28;20183;-85
2023/10/26 02:53:25;;;;;;;2.20;1.83;;;10.10;99.90;;;;;;5001946;28;20192;-85
2023/10/26 02:55:51;;;;;;;2.47;1.93;;;10.10;99.90;;;;;;5003298;28;20211;-85
2023/10/26 02:58:17;;;;;;;2.30;2.00;;;10.10;99.90;;;;;;5002184;28;20541;-85
2023/10/26 03:00:43;;;;;;;2.13;1.93;;;10.10;99.90;;;;;;5000690;28;20698;-85
2023/10/26 03:03:08;;;;;;;2.27;1.97;;;10.10;99.90;;;;;;5009784;28;20233;-85
2023/10/26 03:05:35;;;;;;;2.03;1.80;;;10.10;99.90;;;;;;5011306;28;20205;-86
2023/10/26 03:08:01;;;;;;;2.83;2.10;;;10.10;99.90;;;;;;5021554;28;20270;-85
2023/10/26 03:10:27;;;;;;;3.00;2.10;;;10.10;99.90;;;;;;5029848;28;20271;-83
2023/10/26 03:12:52;;;;;;;2.60;2.10;;;10.10;99.90;;;;;;5026827;28;20203;-85
2023/10/26 03:15:19;;;;;;;2.97;2.20;;;10.10;99.90;;;;;;5008182;28;20179;-83
2023/10/26 03:17:44;;;;;;;2.33;2.10;;;10.10;99.90;;;;;;5012305;28;20179;-85
2023/10/26 03:20:10;;;;;;;2.97;2.40;;;10.10;99.90;;;;;;5008639;28;20186;-85
2023/10/26 03:22:36;;;;;;;2.90;2.43;;;10.10;99.90;;;;;;5006626;28;20667;-85
2023/10/26 03:25:03;;;;;;;2.53;2.20;;;10.10;99.90;;;;;;5003914;28;20186;-85
2023/10/26 03:27:29;;;;;;;2.40;2.20;;;10.10;99.90;;;;;;5012677;28;20210;-86
2023/10/26 03:29:54;;;;;;;3.23;2.10;;;10.10;99.90;;;;;;5013693;28;20187;-85
2023/10/26 03:32:20;;;;;;;3.37;2.40;;;10.10;99.90;;;;;;5008138;28;20282;-86
2023/10/26 03:34:46;;;;;;;3.90;2.63;;;10.00;99.90;;;;;;5001944;28;20181;-85
2023/10/26 03:37:11;;;;;;;2.77;2.57;;;10.00;99.90;;;;;;5001381;28;20204;-85
2023/10/26 03:39:37;;;;;;;2.73;2.10;;;10.00;99.90;;;;;;5008988;28;20229;-85
2023/10/26 03:42:02;;;;;;;2.60;2.40;;;10.00;99.90;;;;;;5013471;28;20195;-86
2023/10/26 03:44:28;;;;;;;3.07;2.50;;;10.00;99.90;;;;;;5012142;28;20244;-86
2023/10/26 03:46:54;;;;;;;2.70;2.40;;;10.00;99.90;;;;;;5004106;28;20207;-86
2023/10/26 03:49:20;;;;;;;2.50;2.10;;;10.00;99.90;;;;;;5006346;28;20226;-85
2023/10/26 03:51:49;;;;;;;2.70;2.50;;;10.00;99.90;;;;;;5000800;28;20214;-85
2023/10/26 03:54:14;;;;;;;3.07;2.37;;;10.00;99.90;;;;;;5005622;28;20545;-84
2023/10/26 03:56:40;;;;;;;3.27;2.50;;;10.00;99.90;;;;;;5004300;28;20208;-84
2023/10/26 03:59:05;;;;;;;3.07;2.50;;;10.20;99.90;;;;;;5014563;28;20179;-84
2023/10/26 04:01:31;;;;;;;2.73;2.40;;;10.10;99.90;;;;;;5005641;28;20190;-85
2023/10/26 04:03:56;;;;;;;3.03;2.70;;;10.20;99.90;;;;;;5009519;28;20195;-84
2023/10/26 04:06:22;;;;;;;3.17;2.73;;;10.20;99.90;;;;;;5007741;28;20202;-84
2023/10/26 04:08:48;;;;;;;3.40;3.00;;;10.30;99.90;;;;;;5002810;28;20191;-84
2023/10/26 04:11:17;;;;;;;3.03;2.70;;;10.20;99.90;;;;;;5002836;28;20179;-84
2023/10/26 04:13:43;;;;;;;3.07;2.77;;;10.30;99.90;;;;;;5010073;28;20198;-85
2023/10/26 04:16:09;;;;;;;3.63;3.00;;;10.20;99.90;;;;;;5000334;28;20209;-84
2023/10/26 04:18:35;;;;;;;2.97;2.67;;;10.20;99.90;;;;;;5000542;28;20542;-85
2023/10/26 04:21:00;;;;;;;5.37;3.07;;;10.30;99.90;;;;;;5009675;28;20665;-85
2023/10/26 04:23:27;;;;;;;3.30;3.00;;;10.30;99.90;;;;;;5009181;28;20187;-84
2023/10/26 04:25:53;;;;;;;3.70;3.03;;;10.20;99.90;;;;;;5011548;28;20286;-85
2023/10/26 04:28:18;;;;;;;3.80;3.17;;;10.10;99.90;;;;;;5002336;28;20198;-85
2023/10/26 04:30:46;;;;;;;3.67;3.20;;;10.10;99.90;;;;;;4999727;28;20190;-85
2023/10/26 04:33:12;;;;;;;4.40;3.23;;;10.00;99.90;;;;;;5004389;28;20282;-85
2023/10/26 04:35:45;;;;;;;4.20;3.57;;;10.00;99.90;;;;;;5004398;28;20230;-85
2023/10/26 04:38:11;;;;;;;3.73;3.33;;;10.00;99.90;;;;;;5001391;28;20211;-85
2023/10/26 04:40:41;;;;;;;4.30;3.40;;;10.00;99.90;;;;;;5001440;28;20182;-84
2023/10/26 04:43:08;;;;;;;3.87;3.47;;;10.00;99.90;;;;;;5004588;28;20265;-85
2023/10/26 04:45:34;;;;;;;3.50;3.03;;;9.90;99.90;;;;;;5012230;28;20206;-84
2023/10/26 04:48:00;;;;;;;4.70;3.40;;;9.90;99.90;;;;;;5004604;28;20190;-85
2023/10/26 04:50:26;;;;;;;4.07;3.60;;;9.90;99.90;;;;;;4999106;28;20187;-85
2023/10/26 04:52:52;;;;;;;4.87;3.33;;;9.90;99.90;;;;;;4999988;28;20674;-84
2023/10/26 04:55:18;;;;;;;5.43;3.43;;;10.00;99.90;;;;;;4992526;28;20182;-82
2023/10/26 04:57:44;;;;;;;5.13;3.83;;;10.00;99.90;;;;;;5008990;28;20206;-85
2023/10/26 05:00:10;;;;;;;4.70;3.70;;;9.90;99.90;;;;;;4996851;28;20206;-86
2023/10/26 05:02:40;;;;;;;4.87;4.03;;;9.90;99.90;;;;;;5006506;28;20201;-84
2023/10/26 05:05:07;;;;;;;5.50;4.23;;;9.80;99.90;;;;;;5004748;28;20186;-84
2023/10/26 05:07:33;;;;;;;4.80;4.10;;;9.80;99.90;;;;;;5013717;28;20294;-85
2023/10/26 05:09:59;;;;;;;4.77;4.17;;;9.90;99.90;;;;;;4996054;28;20603;-85
2023/10/26 05:12:25;;;;;;;5.10;4.27;;;9.80;99.90;;;;;;4998488;28;20684;-81
2023/10/26 05:14:51;;;;;;;5.83;5.00;;;9.80;99.90;;;;;;5002115;28;20179;-81
2023/10/26 05:17:16;;;;;;;6.00;5.20;;;9.80;99.90;;;;;;5013484;28;20199;-82
2023/10/26 05:19:42;;;;;;;6.53;5.10;;;9.80;99.90;;;;;;5011027;28;20235;-82
2023/10/26 05:22:07;;;;;;;5.57;4.73;;;9.80;99.90;;;;;;5008491;28;20214;-82
2023/10/26 05:24:33;;;;;;;5.70;4.60;;;9.80;99.90;;;;;;5024250;28;20179;-82
2023/10/26 05:26:58;;;;;;;6.03;4.40;;;9.70;99.90;;;;;;5003663;28;20190;-83
2023/10/26 05:29:24;;;;;;;4.90;4.33;;;9.70;99.90;;;;;;5011034;28;20267;-81
2023/10/26 05:31:50;;;;;;;5.53;4.60;;;9.80;99.90;;;;;;5005654;28;20198;-83
2023/10/26 05:34:15;;;;;;;4.97;4.47;;;9.70;99.90;;;;;;5012307;28;20175;-81
2023/10/26 05:36:41;;;;;;;6.97;4.80;;;9.70;99.90;;;;;;5013380;28;20264;-81
2023/10/26 05:39:07;;;;;;;5.00;4.17;;;9.80;99.90;;;;;;5008718;28;20197;-81
2023/10/26 05:41:35;;;;;;;5.73;4.50;;;9.80;99.90;;;;;;5012322;28;20179;-82
2023/10/26 05:44:01;;;;;;;8.07;4.77;;;9.80;99.90;;;;;;5012376;28;20190;-83
2023/10/26 05:46:26;;;;;;;5.93;4.90;;;9.80;99.90;;;;;;5006475;28;20202;-83
2023/10/26 05:48:52;;;;;;;5.60;4.90;;;9.70;99.90;;;;;;5015531;28;20282;-83
2023/10/26 05:51:17;;;;;;;5.80;4.83;;;9.70;99.90;;;;;;5011171;28;20194;-83
2023/10/26 05:53:43;;;;;;;6.33;5.20;;;9.70;99.90;;;;;;5011898;28;20555;-84
2023/10/26 05:56:10;;;;;;;5.30;4.73;;;9.70;99.90;;;;;;5011724;28;20215;-84
2023/10/26 05:58:36;;;;;;;5.53;4.70;;;9.70;99.90;;;;;;5002159;28;20186;-84
2023/10/26 06:01:02;;;;;;;6.10;5.37;;;9.70;99.90;;;;;;4998406;28;20171;-81
2023/10/26 06:03:28;;;;;;;6.17;5.00;;;9.70;99.90;;;;;;5014419;28;20175;-81
2023/10/26 06:06:01;;;;;;;6.33;4.87;;;9.80;99.90;;;;;;5014785;28;20226;-81
2023/10/26 06:08:27;;;;;;;6.17;5.17;;;9.80;99.90;;;;;;4998585;28;20747;-80
2023/10/26 06:10:53;;;;;;;6.33;5.13;;;9.80;99.90;;;;;;5012431;28;20202;-83
2023/10/26 06:13:18;;;;;;;6.00;4.73;;;9.80;99.90;;;;;;5008350;28;20223;-81
2023/10/26 06:15:44;;;;;;;6.03;4.80;;;9.80;99.90;;;;;;5002387;28;20287;-81
2023/10/26 06:18:10;;;;;;;5.83;5.10;;;9.80;99.90;;;;;;5005761;28;20207;-79
2023/10/26 06:20:36;;;;;;;6.73;5.57;;;9.80;99.90;;;;;;5027107;28;20187;-80
2023/10/26 06:23:02;;;;;;;7.47;6.10;;;9.80;99.90;;;;;;5003518;28;20183;-81
2023/10/26 06:25:28;;;;;;;7.70;6.20;;;9.80;99.90;;;;;;5014606;28;20195;-78
2023/10/26 06:27:57;;;;;;;7.67;6.30;;;9.80;99.90;;;;;;5015062;28;20303;-78
2023/10/26 06:30:24;;;;;;;8.50;5.70;;;9.80;99.90;;;;;;5012295;28;20179;-78
2023/10/26 06:32:50;;;;;;;6.63;5.93;;;9.70;99.90;;;;;;5027777;28;20693;-79
2023/10/26 06:35:15;;;;;;;7.10;6.07;;;9.70;99.90;;;;;;5001464;28;20187;-77
2023/10/26 06:37:41;;;;;;;7.63;6.40;;;9.70;99.90;;;;;;5010155;28;20175;-80
2023/10/26 06:40:07;;;;;;;8.27;6.63;;;9.70;99.90;;;;;;5014550;28;20191;-80
2023/10/26 06:42:33;;;;;;;8.27;6.50;;;9.70;99.90;;;;;;5005455;28;20178;-78
2023/10/26 06:44:59;;;;;;;8.43;6.60;;;9.60;99.90;;;;;;5013225;28;20433;-80
2023/10/26 06:47:24;;;;;;;7.40;6.17;;;9.60;99.90;;;;;;5029500;28;20630;-80
2023/10/26 06:49:50;;;;;;;7.13;5.70;;;9.60;99.90;;;;;;5013854;28;20262;-77
2023/10/26 06:52:15;;;;;;;8.37;6.57;;;9.60;99.90;;;;;;5012817;28;20202;-79
2023/10/26 06:54:41;;;;;;;9.80;7.63;;;9.50;99.90;;;;;;5013405;28;20182;-79
2023/10/26 06:57:06;;;;;;;9.67;7.53;;;9.50;99.90;;;;;;5010293;28;20210;-80
2023/10/26 06:59:32;;;;;;;10.67;8.20;;;9.50;99.90;;;;;;5012897;28;20273;-80
2023/10/26 07:01:58;;;;;;;11.07;7.73;;;9.50;99.90;;;;;;5006321;28;20241;-80
2023/10/26 07:04:23;;;;;;;9.27;6.80;;;9.50;99.90;;;;;;5014357;28;20674;-80
2023/10/26 07:06:49;;;;;;;9.57;7.20;;;9.50;99.90;;;;;;5012390;28;20210;-80
2023/10/26 07:09:15;;;;;;;10.60;7.37;;;9.50;99.90;;;;;;4998576;28;20179;-82
2023/10/26 07:11:41;;;;;;;10.30;7.77;;;9.50;99.90;;;;;;5003829;28;20218;-78
2023/10/26 07:14:07;;;;;;;11.03;7.97;;;9.50;99.90;;;;;;5006477;28;20183;-81
2023/10/26 07:16:32;;;;;;;10.33;7.67;;;9.50;99.90;;;;;;5009466;28;20622;-80
2023/10/26 07:18:58;;;;;;;11.33;8.03;;;9.50;99.90;;;;;;5017777;28;20206;-80
2023/10/26 07:21:23;;;;;;;11.63;8.13;;;9.50;99.90;;;;;;5009793;28;20186;-80
2023/10/26 07:23:49;;;;;;;11.20;7.50;;;9.40;99.90;;;;;;5008668;28;20185;-82
2023/10/26 07:26:17;;;;;;;11.27;8.27;;;9.40;99.90;;;;;;5012547;28;20203;-78
2023/10/26 07:28:42;;;;;;;10.73;8.13;;;9.40;99.90;;;;;;5011345;28;20175;-80
2023/10/26 07:31:08;;;;;;;11.77;8.57;;;9.40;99.90;;;;;;5012018;28;20206;-80
2023/10/26 07:33:33;;;;;;;10.67;8.27;;;9.40;99.90;;;;;;5004377;28;20191;-80
2023/10/26 07:35:59;;;;;;;11.47;8.43;;;9.40;99.90;;;;;;5003658;28;20211;-79
2023/10/26 07:38:25;;;;;;;10.17;8.00;;;9.40;99.90;;;;;;5008593;28;20191;-80
2023/10/26 07:40:53;;;;;;;11.50;8.80;;;9.50;99.90;;;;;;5013607;28;20171;-79
2023/10/26 07:43:18;;;;;;;11.43;8.63;;;9.40;99.90;;;;;;5012357;28;20211;-79
2023/10/26 07:45:46;;;;;;;13.43;9.17;;;9.40;99.90;;;;;;5007046;28;20364;-79
2023/10/26 07:48:11;;;;;;;11.37;8.37;;;9.40;99.90;;;;;;5010960;28;20179;-77
2023/10/26 07:50:37;;;;;;;12.20;8.67;;;9.50;99.90;;;;;;5003061;28;20179;-77
2023/10/26 07:53:03;;;;;;;11.90;8.77;;;9.50;99.90;;;;;;5004699;28;20191;-77
2023/10/26 07:55:29;;;;;;;12.30;8.90;;;9.50;99.90;;;;;;5009021;28;20229;-78
2023/10/26 07:57:55;;;;;;;11.57;8.43;;;9.50;99.90;;;;;;5006753;28;20233;-78
2023/10/26 08:02:45;;;;;;;10.47;7.90;;;9.60;99.90;;;;;;5072647;23;20251;-81
2023/10/26 08:05:12;;;;;;;10.17;8.10;;;9.60;99.90;;;;;;5021186;28;20179;-83
2023/10/26 08:07:38;;;;;;;11.70;8.13;;;9.60;99.90;;;;;;5032752;28;20185;-82
2023/10/26 08:10:04;;;;;;;10.60;8.23;;;9.60;99.90;;;;;;5012972;28;20179;-82
2023/10/26 08:12:30;;;;;;;10.77;8.47;;;9.70;99.90;;;;;;5008834;28;20202;-82
2023/10/26 08:14:57;;;;;;;10.00;7.93;;;9.60;99.90;;;;;;5004951;28;20258;-81
2023/10/26 08:17:25;;;;;;;11.27;8.17;;;9.60;99.90;;;;;;5011848;28;20233;-83
2023/10/26 08:19:52;;;;;;;10.23;7.87;;;9.60;99.90;;;;;;5011493;28;20179;-82
2023/10/26 08:22:18;;;;;;;9.73;7.63;;;9.60;99.90;;;;;;5001107;28;20203;-85
2023/10/26 08:24:43;;;;;;;10.13;7.80;;;9.60;99.90;;;;;;4999775;28;20206;-83
2023/10/26 08:27:09;;;;;;;9.47;7.60;;;9.60;99.90;;;;;;5011583;28;20186;-84
2023/10/26 08:29:34;;;;;;;10.00;8.03;;;9.60;99.90;;;;;;5004800;28;20185;-83
2023/10/26 08:32:00;;;;;;;11.70;8.50;;;9.60;99.90;;;;;;5009076;28;20211;-82
2023/10/26 08:34:27;;;;;;;8.97;7.53;;;9.60;99.90;;;;;;5004524;28;20209;-83
2023/10/26 08:36:52;;;;;;;9.07;7.60;;;9.70;99.90;;;;;;5003650;28;20249;-83
2023/10/26 08:39:18;;;;;;;9.87;7.63;;;9.70;99.90;;;;;;5005487;28;20191;-84
2023/10/26 08:41:52;;;;;;;9.83;7.57;;;9.70;99.90;;;;;;5011133;28;20210;-82
2023/10/26 08:44:18;;;;;;;9.37;7.60;;;9.70;99.90;;;;;;5004487;28;20191;-90
2023/10/26 08:46:58;;;;;;;9.27;7.30;;;9.70;99.90;;;;;;5007796;28;20193;-81
2023/10/26 08:49:27;;;;;;;9.47;7.77;;;9.70;99.90;;;;;;4998055;28;20178;-82
2023/10/26 08:51:53;;;;;;;9.23;7.57;;;9.80;99.90;;;;;;5009859;28;20242;-82
2023/10/26 08:54:19;;;;;;;9.67;7.77;;;9.80;99.90;;;;;;5009300;28;20265;-81
2023/10/26 08:56:45;;;;;;;8.57;7.17;;;9.80;99.90;;;;;;5011686;28;20203;-81
2023/10/26 08:59:10;;;;;;;8.90;7.30;;;9.80;99.90;;;;;;5003237;28;20191;-79
2023/10/26 09:01:36;;;;;;;10.57;7.30;;;9.80;99.90;;;;;;5008929;28;20228;-80
2023/10/26 09:04:11;;;;;;;10.60;7.33;;;9.80;99.90;;;;;;5011696;28;20175;-81
2023/10/26 09:06:52;;;;;;;8.17;7.07;;;9.80;99.90;;;;;;4997043;28;20186;-81
2023/10/26 09:09:18;;;;;;;8.27;7.37;;;9.90;99.90;;;;;;5009244;28;20178;-81
2023/10/26 09:11:48;;;;;;;9.30;7.07;;;9.90;99.90;;;;;;5008084;28;20207;-81
2023/10/26 09:14:13;;;;;;;8.80;7.10;;;9.90;99.90;;;;;;5006269;28;20176;-80
2023/10/26 09:16:41;;;;;;;8.17;7.27;;;10.00;99.90;;;;;;5003665;28;20186;-82
2023/10/26 09:19:07;;;;;;;7.87;6.63;;;10.00;99.90;;;;;;5010930;28;20666;-81
2023/10/26 09:21:57;;;;;;;9.87;7.63;;;10.10;99.90;;;;;;5018350;28;20664;-82
2023/10/26 09:24:24;;;;;;;8.87;7.30;;;10.20;99.90;;;;;;5015055;28;20205;-81
2023/10/26 09:26:59;;;;;;;8.53;7.40;;;10.20;99.90;;;;;;5014187;28;20532;-80
2023/10/26 09:29:41;;;;;;;8.73;7.07;;;10.20;99.90;;;;;;5002153;28;20187;-81
2023/10/26 09:32:08;;;;;;;7.47;6.63;;;10.10;99.90;;;;;;5001826;28;20207;-81
2023/10/26 09:34:42;;;;;;;8.03;6.93;;;10.20;99.90;;;;;;5001009;28;20648;-81
2023/10/26 09:37:08;;;;;;;8.57;6.63;;;10.30;99.90;;;;;;5007171;28;20253;-81
2023/10/26 09:39:36;;;;;;;8.13;7.33;;;10.30;99.90;;;;;;5018198;28;20211;-81
2023/10/26 09:42:03;;;;;;;8.97;6.80;;;10.30;99.90;;;;;;5006652;28;20207;-80
2023/10/26 09:44:29;;;;;;;8.57;6.80;;;10.40;99.90;;;;;;5011254;28;20278;-80
2023/10/26 09:46:55;;;;;;;9.30;6.43;;;10.40;99.90;;;;;;5008988;28;20554;-81
2023/10/26 09:49:26;;;;;;;8.10;6.90;;;10.50;99.90;;;;;;5010945;28;20274;-80
2023/10/26 09:51:52;;;;;;;8.00;6.53;;;10.60;99.90;;;;;;5006130;28;20203;-80
2023/10/26 09:54:20;;;;;;;9.40;6.83;;;10.70;99.90;;;;;;5005428;28;20263;-80
2023/10/26 09:57:06;;;;;;;9.50;7.30;;;10.70;99.90;;;;;;5004420;28;20223;-80
2023/10/26 09:59:32;;;;;;;7.87;7.07;;;10.60;99.90;;;;;;5007695;28;20198;-80
2023/10/26 10:01:57;;;;;;;8.17;7.10;;;10.70;99.90;;;;;;5004698;28;20219;-80
2023/10/26 10:04:37;;;;;;;7.80;6.67;;;10.60;99.90;;;;;;5004700;28;20269;-81
2023/10/26 10:07:04;;;;;;;8.60;6.77;;;10.70;99.90;;;;;;5006517;28;20214;-80
2023/10/26 10:09:30;;;;;;;8.30;6.77;;;10.80;99.90;;;;;;5011637;28;20179;-86
2023/10/26 10:12:05;;;;;;;7.37;6.50;;;10.80;99.90;;;;;;5007844;28;20203;-81
2023/10/26 10:14:54;;;;;;;7.50;6.70;;;10.90;99.90;;;;;;5004114;28;20179;-81
2023/10/26 10:17:43;;;;;;;8.97;6.77;;;10.90;99.90;;;;;;5003284;28;20180;-81
2023/10/26 10:20:30;;;;;;;7.67;6.67;;;10.90;99.90;;;;;;5004808;28;20180;-80
2023/10/26 10:22:58;;;;;;;7.80;6.53;;;10.90;99.90;;;;;;5012603;28;20175;-81
2023/10/26 10:25:49;;;;;;;7.90;6.83;;;10.90;99.90;;;;;;5005073;28;20180;-80
2023/10/26 10:28:16;;;;;;;7.67;6.80;;;10.90;99.90;;;;;;5005997;28;20179;-80
2023/10/26 10:30:50;;;;;;;653.37;353.20;;;10.90;99.90;;;;;;5006815;28;20203;-79
2023/10/26 10:33:25;;;;;;;246.80;71.30;;;11.50;99.90;;;;;;5018133;28;20203;-79
2023/10/26 10:35:56;;;;;;;256.30;79.43;;;11.30;99.90;;;;;;5018048;28;20207;-79
2023/10/26 10:38:23;;;;;;;63.57;25.13;;;11.30;99.90;;;;;;5015203;28;20185;-81
2023/10/26 10:40:55;;;;;;;13.03;8.40;;;11.30;99.90;;;;;;5016441;28;20195;-83
2023/10/26 10:43:37;;;;;;;13.67;7.60;;;11.50;99.90;;;;;;5013026;28;20195;-83
2023/10/26 10:46:12;;;;;;;7.00;6.30;;;11.40;99.90;;;;;;5005135;28;20271;-81
2023/10/26 10:49:05;;;;;;;7.20;6.40;;;11.40;99.90;;;;;;5006532;28;20236;-81
2023/10/26 10:51:36;;;;;;;8.00;6.80;;;11.20;99.90;;;;;;5004201;28;20280;-81
2023/10/26 10:54:04;;;;;;;6.60;6.00;;;11.10;99.90;;;;;;5013576;28;20174;-81
2023/10/26 10:56:39;;;;;;;8.10;6.40;;;10.90;99.90;;;;;;5012692;28;20241;-80
2023/10/26 10:59:18;;;;;;;7.83;6.73;;;10.80;99.90;;;;;;5008035;28;20347;-81
2023/10/26 11:01:44;;;;;;;8.23;7.07;;;10.80;99.90;;;;;;5011949;28;20198;-80
2023/10/26 11:04:13;;;;;;;8.07;6.60;;;10.70;99.90;;;;;;5010052;28;20278;-82
2023/10/26 11:06:46;;;;;;;9.57;8.10;;;10.70;99.90;;;;;;5010133;28;20320;-80
2023/10/26 11:09:37;;;;;;;8.53;6.90;;;10.80;99.90;;;;;;5025407;28;20203;-82
2023/10/26 11:12:10;;;;;;;10.80;7.73;;;10.80;99.90;;;;;;5025543;28;20270;-82
2023/10/26 11:14:36;;;;;;;7.13;6.27;;;10.90;99.90;;;;;;5012621;28;20246;-82
2023/10/26 11:17:02;;;;;;;9.13;6.70;;;10.90;99.90;;;;;;5013381;28;20171;-82
2023/10/26 11:19:27;;;;;;;8.37;7.03;;;10.90;99.90;;;;;;5009026;28;20179;-82
2023/10/26 11:21:56;;;;;;;7.23;6.50;;;10.90;99.90;;;;;;5010720;28;20209;-84
2023/10/26 11:24:31;;;;;;;9.13;6.67;;;10.90;99.90;;;;;;5005574;28;20192;-82
2023/10/26 11:27:06;;;;;;;7.93;6.60;;;10.90;99.90;;;;;;5009622;28;20178;-81
2023/10/26 11:29:31;;;;;;;7.27;6.53;;;10.90;99.90;;;;;;5000886;28;20174;-81
2023/10/26 11:31:57;;;;;;;7.53;6.47;;;11.30;99.90;;;;;;5012080;28;20735;-81
2023/10/26 11:34:25;;;;;;;9.53;6.40;;;11.30;99.90;;;;;;5000154;28;20183;-81
2023/10/26 11:36:52;;;;;;;7.40;6.23;;;11.60;99.90;;;;;;5008942;28;20185;-82
2023/10/26 11:39:18;;;;;;;7.70;5.60;;;11.90;99.90;;;;;;5009777;28;20199;-82
2023/10/26 11:41:55;;;;;;;9.33;6.30;;;11.90;99.90;;;;;;5010910;28;20202;-84
2023/10/26 11:44:25;;;;;;;6.17;5.17;;;12.10;99.90;;;;;;5008071;28;20187;-82
2023/10/26 11:47:00;;;;;;;6.13;5.50;;;12.00;19.20;;;;;;5011895;28;20183;-81
2023/10/26 11:49:39;;;;;;;6.90;5.30;;;11.80;99.10;;;;;;5004930;28;20194;-81
2023/10/26 11:52:06;;;;;;;5.90;5.27;;;11.70;99.90;;;;;;5007613;28;20211;-81
2023/10/26 11:54:32;;;;;;;5.90;5.30;;;11.60;99.90;;;;;;5000753;28;20275;-80
2023/10/26 11:56:57;;;;;;;7.00;6.30;;;11.40;99.90;;;;;;5020708;28;20195;-80
2023/10/26 11:59:23;;;;;;;8.90;7.33;;;11.40;99.90;;;;;;5001936;28;20190;-78
2023/10/26 12:01:48;;;;;;;6.60;5.33;;;11.30;99.90;;;;;;5004792;28;20228;-80
2023/10/26 12:04:14;;;;;;;5.30;4.80;;;11.30;98.90;;;;;;5007289;28;20197;-81
2023/10/26 12:06:40;;;;;;;5.57;4.80;;;11.30;77.90;;;;;;5011371;28;20179;-80
2023/10/26 12:09:06;;;;;;;5.07;4.57;;;11.30;1.00;;;;;;4993886;28;20185;-80
2023/10/26 12:11:33;;;;;;;5.50;5.00;;;11.40;1.00;;;;;;5026269;28;20198;-82
2023/10/26 12:13:58;;;;;;;5.30;4.80;;;11.40;1.00;;;;;;5005075;28;20183;-78
2023/10/26 12:16:24;;;;;;;5.17;4.67;;;11.40;5.00;;;;;;4999300;28;20603;-80
2023/10/26 12:18:51;;;;;;;5.83;5.10;;;11.50;1.00;;;;;;5011365;28;20183;-80
2023/10/26 12:21:17;;;;;;;5.30;4.80;;;11.40;2.30;;;;;;4996947;28;20198;-80
2023/10/26 12:23:42;;;;;;;5.63;4.80;;;11.40;1.00;;;;;;5010998;28;20190;-78
2023/10/26 12:26:08;;;;;;;5.20;4.70;;;11.40;1.00;;;;;;5013450;28;20185;-79
2023/10/26 12:28:33;;;;;;;5.67;4.37;;;11.50;1.00;;;;;;4996380;28;20290;-80
2023/10/26 12:30:59;;;;;;;5.07;4.57;;;11.50;1.00;;;;;;5008478;28;20749;-80
2023/10/26 12:33:25;;;;;;;5.53;4.80;;;11.50;1.00;;;;;;5006278;28;20237;-78
2023/10/26 12:35:50;;;;;;;5.10;4.60;;;11.50;1.00;;;;;;5013091;28;20185;-80
2023/10/26 12:38:19;;;;;;;7.37;4.70;;;11.50;1.00;;;;;;5008155;28;20172;-80
2023/10/26 12:40:48;;;;;;;5.30;4.40;;;11.50;1.00;;;;;;5009117;28;20553;-80
2023/10/26 12:43:14;;;;;;;5.03;4.20;;;11.60;1.00;;;;;;5000535;28;20234;-82
2023/10/26 12:45:40;;;;;;;4.87;4.37;;;11.50;1.00;;;;;;4996956;28;20210;-81
2023/10/26 12:48:05;;;;;;;4.70;4.20;;;11.50;1.00;;;;;;5012266;28;20187;-80
2023/10/26 12:50:31;;;;;;;5.07;4.43;;;11.50;1.00;;;;;;5004123;28;20205;-79
2023/10/26 12:52:56;;;;;;;5.73;5.23;;;11.50;1.00;;;;;;5016969;28;20202;-79
2023/10/26 12:55:23;;;;;;;6.03;5.20;;;11.40;1.00;;;;;;5015803;28;20181;-80
2023/10/26 12:57:50;;;;;;;7.33;5.90;;;11.40;1.00;;;;;;5015867;28;20609;-79
2023/10/26 13:00:16;;;;;;;6.37;5.67;;;11.60;99.90;;;;;;5014294;28;20655;-80
2023/10/26 13:02:42;;;;;;;5.60;4.50;;;11.60;54.10;;;;;;5013707;28;20306;-80
2023/10/26 13:05:08;;;;;;;5.43;4.87;;;11.60;1.00;;;;;;5015650;28;20182;-78
2023/10/26 13:07:34;;;;;;;6.63;5.00;;;11.50;9.80;;;;;;5016809;28;20293;-80